Airfield :
LOGIN :

Register | Disclaimer

   EN    FR    IT 

 










Legend :    VFR   Marginal VFR   IFR   Intensive IFR   Very Intensive IFR
Visi :
Ceiling :
>= 8 km
>= 3000ft
5 to 8 km
1000 to 3000 ft
1500m to 5 km
500 to 1000 ft
800 to 1500m
200 to 500 ft
< 800m
< 200 ft
Symbols :   Thunderstorms  Fog  Heavy snow  Heavy precipitations  Wind > 20 kt
SIGMETs :     Misc.  Thunderstorms  Icing  Turbulence  Mountain Waves  Volcanic Ashes






- Airport Elevation : 622 ft
- IATA code : BRS


EGGD - Bristol Int.

CURRENT METAR :
  • 021850Z AUTO 26014KT 9999 SCT004 BKN031 BKN045 07/06 Q1016

EXPIRED METARs :
  • 021820Z AUTO 26013KT 9999 SCT033 BKN041 08/06 Q1016
  • 021750Z AUTO 26014KT 9999 BKN031 OVC045 08/07 Q1015
  • 021720Z AUTO 26014KT 9999 SCT006 BKN028 08/07 Q1015
  • 021650Z AUTO 25012KT 9999 FEW007 OVC028 08/07 Q1015
  • 021620Z AUTO 27015KT 9999 BKN025 OVC030 09/07 Q1015

TAF TAF EGGD
Valid from the 02 at 18:00 until the 03 at 18:00 UTC


021659Z 0218/0318 28006KT 9999 FEW025 SCT040
PROB30
TEMPO 0218/0313 9000 -SHRA
PROB30
TEMPO 0220/0302 BKN014
ATIS : +44 1275 473 666



MET'MAP, your aeronautical weather chart ! - Copyright ORBIFLY December 2007 - Disclaimer

ORBIFLY MET'MAP TEAM :

Programming & Development : Alexandra Zaïnal
Concept & original design : Baudouin d'Aumeries
Assistance for programming : Marc-Olivier Méhu
Technical & hardware support : Manuel Goepfert

Contact : metmap@orbifly.com




SOURCES & CREDITS :

   NOAA